Bucketlist — WDG2966 — position and weather

sailwx.info

Track history (hours):
 
Tides and Currents Weather Stations Pressure Air Temp Water Temp Dewpoint Dewpoint Depression Visibility Wind Speed Wind Dir Waves Ship Positions

Bucketlist

Owner: Fulginiti, Linda M, Jasper, OR. More information available from US FCC via Universal Licensing System and Coast Guard Vessel Documentation Center.

Last reported at 2016-Jul-23 21:11 UTC. Time now 2016-Aug-26 10:16 UTC.
Position N 48°05' W 122°45'.
Warning: this ship's position is 33 days out of date.

Length 10 m.

Type: Pleasure craft. MMSI: 367521080.

Date/timePositionNaut miles runAvg speedWind from/ knotsBaromVisibWave heightAir tempDewpointWater temp
2016-Jul-23 21:11N 48°05' W 122°45'8 7.7
2016-Jul-23 20:04N 48°14' W 122°48'5 8.6
2016-Jul-23 19:30N 48°18' W 122°52'7 7.7
2016-Jul-23 18:31N 48°25' W 122°55'8 8.4
2016-Jul-23 17:33N 48°32' W 123°01'0 0.2
2016-Jul-23 16:25N 48°32' W 123°01'0 0.0
2016-Jul-23 03:23N 48°32' W 123°01'0 0.0
2016-Jul-23 02:32N 48°32' W 123°01'0 0.0
2016-Jul-22 23:33N 48°32' W 123°01'1 1.0
2016-Jul-22 22:33N 48°33' W 123°00'14 6.8
2016-Jul-22 20:33N 48°41' W 123°18'  
2016-Jul-16 17:31N 48°38' W 123°16'10 8.5
2016-Jul-16 16:21N 48°35' W 123°02'2 2.8
2016-Jul-16 15:33N 48°32' W 123°01'0 0.0
2016-Jul-15 22:05N 48°32' W 123°01'1 1.7
2016-Jul-15 21:33N 48°33' W 122°60'  
Track history (hours):
 
Tides and Currents Weather Stations Pressure Air Temp Water Temp Dewpoint Dewpoint Depression Visibility Wind Speed Wind Dir Waves Ship Positions

Bucketlist

Owner: Fulginiti, Linda M, Jasper, OR. More information available from US FCC via Universal Licensing System and Coast Guard Vessel Documentation Center.

Last reported at 2016-Jul-23 21:11 UTC. Time now 2016-Aug-26 10:16 UTC.
Position N 48°05' W 122°45'.
Warning: this ship's position is 33 days out of date.

Length 10 m.

Type: Pleasure craft. MMSI: 367521080.

Date/timePositionNaut miles runAvg speedWind from/ knotsBaromVisibWave heightAir tempDewpointWater temp
2016-Jul-23 21:11N 48°05' W 122°45'8 7.7
2016-Jul-23 20:04N 48°14' W 122°48'5 8.6
2016-Jul-23 19:30N 48°18' W 122°52'7 7.7
2016-Jul-23 18:31N 48°25' W 122°55'8 8.4
2016-Jul-23 17:33N 48°32' W 123°01'0 0.2
2016-Jul-23 16:25N 48°32' W 123°01'0 0.0
2016-Jul-23 03:23N 48°32' W 123°01'0 0.0
2016-Jul-23 02:32N 48°32' W 123°01'0 0.0
2016-Jul-22 23:33N 48°32' W 123°01'1 1.0
2016-Jul-22 22:33N 48°33' W 123°00'14 6.8
2016-Jul-22 20:33N 48°41' W 123°18'  
2016-Jul-16 17:31N 48°38' W 123°16'10 8.5
2016-Jul-16 16:21N 48°35' W 123°02'2 2.8
2016-Jul-16 15:33N 48°32' W 123°01'0 0.0
2016-Jul-15 22:05N 48°32' W 123°01'1 1.7
2016-Jul-15 21:33N 48°33' W 122°60'  

Dump ship's entire track history